Time;durP1;ratioP1;P1;durP2;ratioP2;P2;SDS_P1;SDS_P2;PMS_P1;PMS_P2;Temp;Humidity;BMP_temperature;BMP_pressure;BME280_temperature;BME280_humidity;BME280_pressure;Samples;Min_cycle;Max_cycle;Signal;HPM_P1;HPM_P2
2021/08/29 00:01:10;;;;;;;8.33;5.07;;;15.90;99.80;;;;;;5073283;28;20214;-79
2021/08/29 00:03:36;;;;;;;7.30;4.87;;;15.80;99.90;;;;;;5054032;28;20168;-79
2021/08/29 00:06:01;;;;;;;9.47;5.40;;;15.90;99.90;;;;;;5055395;28;20176;-78
2021/08/29 00:08:27;;;;;;;10.07;4.90;;;15.90;99.90;;;;;;5072926;28;20172;-79
2021/08/29 00:10:53;;;;;;;7.80;5.20;;;15.70;99.90;;;;;;5054743;28;20709;-79
2021/08/29 00:13:18;;;;;;;11.20;5.20;;;15.70;99.90;;;;;;5072408;28;20196;-79
2021/08/29 00:15:44;;;;;;;9.43;5.33;;;15.70;99.90;;;;;;5072274;28;20264;-80
2021/08/29 00:18:10;;;;;;;8.20;5.77;;;15.70;99.90;;;;;;5072689;28;20180;-79
2021/08/29 00:20:35;;;;;;;10.60;5.20;;;15.60;99.90;;;;;;5072917;28;20522;-80
2021/08/29 00:23:01;;;;;;;8.57;5.10;;;15.70;99.90;;;;;;5072205;28;20200;-80
2021/08/29 00:25:28;;;;;;;9.40;5.57;;;15.70;99.90;;;;;;5072672;28;20621;-80
2021/08/29 00:27:54;;;;;;;11.07;6.13;;;15.60;99.90;;;;;;5054977;28;20625;-81
2021/08/29 00:30:19;;;;;;;9.60;4.90;;;15.60;99.90;;;;;;5054823;28;20184;-81
2021/08/29 00:32:45;;;;;;;10.23;5.67;;;15.50;99.90;;;;;;5054794;28;20182;-79
2021/08/29 00:35:11;;;;;;;10.23;5.47;;;15.50;99.90;;;;;;5054588;28;20292;-79
2021/08/29 00:37:36;;;;;;;9.83;5.20;;;15.50;99.90;;;;;;5054696;28;20166;-81
2021/08/29 00:40:03;;;;;;;9.03;6.20;;;15.60;99.90;;;;;;5053557;28;20206;-80
2021/08/29 00:42:30;;;;;;;11.20;5.97;;;15.50;99.90;;;;;;5072736;28;20164;-80
2021/08/29 00:44:56;;;;;;;11.67;5.57;;;15.50;99.90;;;;;;5072937;28;20253;-81
2021/08/29 00:47:21;;;;;;;13.00;5.97;;;15.50;99.90;;;;;;5073715;28;20176;-78
2021/08/29 00:49:48;;;;;;;10.70;5.03;;;15.50;99.90;;;;;;5076550;28;20331;-81
2021/08/29 00:52:14;;;;;;;9.93;5.27;;;15.50;99.90;;;;;;5075711;28;20184;-80
2021/08/29 00:54:39;;;;;;;10.83;5.40;;;15.70;99.90;;;;;;5075892;28;20269;-79
2021/08/29 00:57:10;;;;;;;10.80;6.13;;;15.60;99.90;;;;;;5058502;28;20172;-79
2021/08/29 00:59:36;;;;;;;9.40;5.40;;;15.60;99.90;;;;;;5057418;28;20190;-80
2021/08/29 01:02:12;;;;;;;12.20;6.53;;;15.60;99.90;;;;;;5076111;28;20211;-80
2021/08/29 01:04:55;;;;;;;12.50;5.90;;;15.50;99.90;;;;;;5057876;28;20208;-80
2021/08/29 01:07:29;;;;;;;9.67;6.97;;;15.60;99.90;;;;;;5075509;28;20187;-80
2021/08/29 01:09:59;;;;;;;10.87;5.13;;;15.50;99.90;;;;;;5075425;28;20178;-78
2021/08/29 01:12:29;;;;;;;10.90;5.40;;;15.50;99.90;;;;;;5075972;28;20168;-80
2021/08/29 01:14:56;;;;;;;9.93;5.57;;;15.50;99.90;;;;;;5075696;28;20196;-80
2021/08/29 01:17:27;;;;;;;14.53;5.70;;;15.50;99.90;;;;;;5075933;28;20227;-80
2021/08/29 01:19:55;;;;;;;11.30;6.00;;;15.50;99.90;;;;;;5075973;28;20211;-79
2021/08/29 01:22:22;;;;;;;11.40;5.90;;;15.50;99.90;;;;;;5058987;28;20184;-80
2021/08/29 01:24:50;;;;;;;10.67;5.97;;;15.60;99.90;;;;;;5100217;28;20183;-81
2021/08/29 01:27:23;;;;;;;9.73;5.47;;;15.80;99.90;;;;;;5093094;28;20240;-79
2021/08/29 01:29:50;;;;;;;14.30;6.40;;;15.70;99.90;;;;;;5082056;28;20183;-80
2021/08/29 01:32:22;;;;;;;11.17;6.30;;;15.70;99.90;;;;;;5078813;28;20169;-79
2021/08/29 01:34:49;;;;;;;11.20;5.70;;;15.60;99.90;;;;;;5061432;28;20200;-79
2021/08/29 01:37:16;;;;;;;13.93;5.77;;;15.60;99.90;;;;;;5079609;28;20278;-79
2021/08/29 01:39:42;;;;;;;12.10;5.67;;;15.60;99.90;;;;;;5075108;28;20265;-79
2021/08/29 01:42:08;;;;;;;10.23;5.80;;;15.60;99.90;;;;;;5075759;28;20182;-80
2021/08/29 01:44:34;;;;;;;13.57;5.83;;;15.60;99.90;;;;;;5075401;28;20195;-80
2021/08/29 01:47:01;;;;;;;10.80;6.20;;;15.70;99.90;;;;;;5058337;28;20178;-78
2021/08/29 01:49:28;;;;;;;13.27;6.90;;;15.60;99.90;;;;;;5096387;28;20210;-79
2021/08/29 01:51:55;;;;;;;9.17;5.40;;;15.60;99.90;;;;;;5099698;28;20252;-79
2021/08/29 01:54:20;;;;;;;13.83;6.20;;;15.80;99.90;;;;;;5088738;28;20735;-80
2021/08/29 01:57:01;;;;;;;10.10;6.33;;;15.80;99.90;;;;;;5081697;28;20180;-80
2021/08/29 01:59:28;;;;;;;10.23;6.10;;;15.90;99.90;;;;;;5076547;28;20171;-79
2021/08/29 02:01:57;;;;;;;10.53;6.40;;;15.90;99.40;;;;;;5056406;28;20179;-79
2021/08/29 02:04:25;;;;;;;14.40;5.87;;;15.80;99.50;;;;;;5075029;28;20181;-79
2021/08/29 02:07:05;;;;;;;10.93;6.30;;;15.70;99.90;;;;;;5074241;28;20172;-80
2021/08/29 02:09:33;;;;;;;11.43;6.13;;;15.90;99.90;;;;;;5074634;28;20217;-79
2021/08/29 02:11:59;;;;;;;10.23;6.17;;;15.90;99.50;;;;;;5075388;28;20255;-81
2021/08/29 02:14:29;;;;;;;16.57;6.50;;;16.00;99.20;;;;;;5074235;28;20207;-80
2021/08/29 02:16:56;;;;;;;10.87;6.67;;;16.00;98.80;;;;;;5074606;28;20172;-79
2021/08/29 02:19:29;;;;;;;11.13;6.27;;;15.90;99.20;;;;;;5074418;28;20230;-79
2021/08/29 02:21:55;;;;;;;14.70;7.00;;;15.80;99.80;;;;;;5055574;28;20199;-80
2021/08/29 02:24:25;;;;;;;9.57;6.00;;;15.90;99.90;;;;;;5056625;28;20182;-81
2021/08/29 02:26:51;;;;;;;11.87;6.70;;;15.80;99.90;;;;;;5074588;28;20667;-80
2021/08/29 02:29:18;;;;;;;11.50;6.13;;;15.70;99.90;;;;;;5074391;28;20214;-78
2021/08/29 02:31:47;;;;;;;12.90;6.47;;;15.70;99.90;;;;;;5074172;28;20184;-80
2021/08/29 02:34:13;;;;;;;10.60;5.80;;;15.80;99.90;;;;;;5073495;28;20204;-79
2021/08/29 02:36:40;;;;;;;11.17;6.60;;;15.70;99.90;;;;;;5074191;28;20184;-80
2021/08/29 02:39:06;;;;;;;11.73;6.37;;;15.70;99.90;;;;;;5055879;28;20176;-79
2021/08/29 02:41:35;;;;;;;11.07;6.90;;;15.70;99.90;;;;;;5074115;28;20219;-79
2021/08/29 02:44:01;;;;;;;11.07;6.60;;;15.90;99.90;;;;;;5074009;28;20195;-78
2021/08/29 02:46:27;;;;;;;12.30;6.40;;;15.80;99.90;;;;;;5073749;28;20180;-79
2021/08/29 02:48:53;;;;;;;10.43;6.10;;;15.80;99.90;;;;;;5073514;28;20168;-79
2021/08/29 02:51:23;;;;;;;9.83;6.43;;;15.60;99.90;;;;;;5082753;28;20188;-80
2021/08/29 02:53:49;;;;;;;14.03;7.07;;;15.60;99.90;;;;;;5089289;28;20674;-79
2021/08/29 02:56:18;;;;;;;10.53;6.77;;;15.60;99.90;;;;;;5075749;28;20681;-79
2021/08/29 02:58:46;;;;;;;9.23;6.27;;;15.70;99.90;;;;;;5073246;28;20261;-79
2021/08/29 03:01:12;;;;;;;11.27;6.33;;;15.70;99.90;;;;;;5073938;28;20230;-79
2021/08/29 03:03:38;;;;;;;12.00;6.80;;;15.60;99.90;;;;;;5073989;28;20183;-79
2021/08/29 03:06:04;;;;;;;12.53;6.57;;;15.60;99.90;;;;;;5072972;28;20631;-79
2021/08/29 03:08:30;;;;;;;11.37;6.17;;;15.60;99.90;;;;;;5055848;28;20180;-79
2021/08/29 03:10:57;;;;;;;11.53;6.30;;;15.50;99.90;;;;;;5073802;28;20654;-79
2021/08/29 03:13:24;;;;;;;8.50;6.03;;;15.60;99.90;;;;;;5073676;28;20199;-79
2021/08/29 03:15:50;;;;;;;12.80;6.77;;;15.50;99.90;;;;;;5073070;28;20182;-80
2021/08/29 03:18:16;;;;;;;9.90;5.87;;;15.50;99.90;;;;;;5074361;28;20600;-79
2021/08/29 03:20:42;;;;;;;12.43;6.90;;;15.60;99.90;;;;;;5075191;28;20194;-79
2021/08/29 03:23:08;;;;;;;10.87;6.50;;;15.60;99.90;;;;;;5073877;28;20172;-81
2021/08/29 03:25:34;;;;;;;13.00;6.37;;;15.70;99.90;;;;;;5075313;28;20195;-78
2021/08/29 03:28:00;;;;;;;10.10;5.73;;;15.80;99.90;;;;;;5090470;28;20210;-78
2021/08/29 03:30:26;;;;;;;11.27;6.03;;;15.90;99.90;;;;;;5068895;28;20255;-81
2021/08/29 03:32:51;;;;;;;9.57;5.90;;;15.90;99.90;;;;;;5072819;28;20292;-79
2021/08/29 03:35:17;;;;;;;13.53;6.60;;;15.80;99.90;;;;;;5072884;28;20262;-79
2021/08/29 03:37:44;;;;;;;11.03;6.50;;;15.80;99.90;;;;;;5072834;28;20181;-79
2021/08/29 03:40:11;;;;;;;10.33;6.70;;;15.70;99.90;;;;;;5072872;28;20223;-79
2021/08/29 03:42:42;;;;;;;13.43;6.53;;;15.70;99.90;;;;;;5072970;28;20214;-80
2021/08/29 03:45:08;;;;;;;11.30;6.73;;;15.70;99.90;;;;;;5072828;28;20188;-79
2021/08/29 03:47:36;;;;;;;10.67;6.70;;;15.70;99.90;;;;;;5072045;28;20180;-79
2021/08/29 03:50:03;;;;;;;15.67;6.77;;;15.70;99.90;;;;;;5055212;28;20208;-79
2021/08/29 03:52:29;;;;;;;12.60;6.43;;;15.70;99.90;;;;;;5072433;28;20192;-79
2021/08/29 03:54:54;;;;;;;12.27;6.80;;;15.70;99.90;;;;;;5073000;28;20309;-79
2021/08/29 03:57:22;;;;;;;13.67;6.63;;;15.80;99.90;;;;;;5072452;28;20547;-79
2021/08/29 03:59:48;;;;;;;15.47;6.20;;;15.80;99.90;;;;;;5073062;28;20191;-79
2021/08/29 04:02:14;;;;;;;11.40;6.13;;;15.80;99.90;;;;;;5053736;28;20632;-79
2021/08/29 04:04:40;;;;;;;12.20;6.47;;;15.80;99.90;;;;;;5073018;28;20538;-79
2021/08/29 04:07:06;;;;;;;10.77;6.27;;;15.80;99.90;;;;;;5073049;28;20175;-80
2021/08/29 04:09:33;;;;;;;12.90;6.63;;;15.80;99.90;;;;;;5054469;28;20182;-79
2021/08/29 04:12:02;;;;;;;12.00;6.43;;;15.90;99.90;;;;;;5054698;28;20261;-79
2021/08/29 04:14:29;;;;;;;15.27;6.87;;;15.80;99.90;;;;;;5072520;28;20200;-79
2021/08/29 04:16:58;;;;;;;12.17;5.90;;;15.90;99.90;;;;;;5072606;28;20171;-79
2021/08/29 04:19:25;;;;;;;11.43;6.27;;;15.90;99.90;;;;;;5054168;28;20213;-79
2021/08/29 04:21:52;;;;;;;13.23;6.03;;;15.90;99.90;;;;;;5054762;28;20208;-79
2021/08/29 04:24:18;;;;;;;10.17;6.27;;;15.90;99.90;;;;;;5074483;28;20676;-79
2021/08/29 04:26:45;;;;;;;13.40;6.13;;;16.00;99.90;;;;;;5058637;28;20268;-80
2021/08/29 04:29:11;;;;;;;10.97;6.07;;;16.00;99.90;;;;;;5076669;28;20172;-80
2021/08/29 04:31:37;;;;;;;12.43;6.50;;;15.90;99.90;;;;;;5075678;28;20168;-80
2021/08/29 04:34:08;;;;;;;10.73;5.87;;;16.10;99.90;;;;;;5075989;28;20576;-80
2021/08/29 04:36:38;;;;;;;13.30;6.60;;;16.00;99.90;;;;;;5075855;28;20184;-80
2021/08/29 04:39:06;;;;;;;12.47;6.07;;;15.90;99.90;;;;;;5076578;28;20251;-80
2021/08/29 04:41:32;;;;;;;11.40;6.50;;;15.90;99.90;;;;;;5058633;28;20184;-80
2021/08/29 04:43:58;;;;;;;10.70;6.03;;;15.90;99.90;;;;;;5076374;28;20188;-80
2021/08/29 04:46:24;;;;;;;12.50;6.97;;;15.90;99.90;;;;;;5057501;28;20180;-80
2021/08/29 04:48:50;;;;;;;13.17;7.03;;;15.90;99.90;;;;;;5075731;28;20251;-80
2021/08/29 04:51:16;;;;;;;9.30;6.23;;;15.90;99.90;;;;;;5076278;28;20217;-80
2021/08/29 04:53:41;;;;;;;10.00;6.80;;;15.80;99.90;;;;;;5075892;28;20184;-80
2021/08/29 04:56:07;;;;;;;14.17;7.33;;;15.90;99.90;;;;;;5075903;28;20176;-80
2021/08/29 04:58:33;;;;;;;12.10;6.90;;;15.90;99.90;;;;;;5076130;28;20168;-79
2021/08/29 05:00:58;;;;;;;14.00;6.93;;;15.80;99.90;;;;;;5088766;28;20164;-79
2021/08/29 05:03:24;;;;;;;10.40;6.93;;;15.90;99.90;;;;;;5101302;28;20173;-78
2021/08/29 05:05:50;;;;;;;12.70;7.03;;;15.80;99.90;;;;;;5084792;28;20164;-80
2021/08/29 05:08:15;;;;;;;11.33;6.30;;;15.80;99.90;;;;;;5063954;28;20176;-80
2021/08/29 05:10:42;;;;;;;11.83;6.83;;;15.90;99.90;;;;;;5077128;28;20187;-80
2021/08/29 05:13:08;;;;;;;14.07;6.43;;;15.90;99.90;;;;;;5076163;28;20187;-80
2021/08/29 05:15:33;;;;;;;12.20;5.93;;;15.90;99.90;;;;;;5075799;28;20253;-80
2021/08/29 05:17:59;;;;;;;10.93;6.43;;;15.90;99.90;;;;;;5075204;28;20636;-80
2021/08/29 05:20:25;;;;;;;11.13;6.67;;;15.90;99.90;;;;;;5058429;28;20602;-79
2021/08/29 05:22:51;;;;;;;10.90;6.13;;;15.90;99.90;;;;;;5076944;28;20208;-79
2021/08/29 05:25:17;;;;;;;9.10;5.80;;;15.80;99.90;;;;;;5085084;28;20208;-79
2021/08/29 05:27:43;;;;;;;11.03;5.70;;;15.80;99.90;;;;;;5101332;28;20230;-79
2021/08/29 05:30:09;;;;;;;8.63;5.47;;;15.90;99.90;;;;;;5099133;28;20178;-78
2021/08/29 05:32:34;;;;;;;10.07;5.67;;;15.90;99.90;;;;;;5065957;28;20168;-80
2021/08/29 05:35:03;;;;;;;11.67;6.10;;;16.00;99.90;;;;;;5078739;28;20208;-78
2021/08/29 05:37:35;;;;;;;9.13;5.83;;;16.00;99.90;;;;;;5075752;28;20165;-79
2021/08/29 05:40:00;;;;;;;10.63;5.83;;;16.00;99.90;;;;;;5076058;28;20259;-80
2021/08/29 05:42:26;;;;;;;8.30;5.70;;;16.00;99.90;;;;;;5057451;28;20259;-79
2021/08/29 05:44:53;;;;;;;10.10;6.07;;;16.20;99.90;;;;;;5057883;28;20346;-79
2021/08/29 05:47:18;;;;;;;12.60;5.80;;;16.10;99.90;;;;;;5076019;28;20172;-79
2021/08/29 05:49:44;;;;;;;11.80;6.07;;;16.30;99.90;;;;;;5057503;28;20182;-80
2021/08/29 05:52:10;;;;;;;10.40;5.97;;;16.20;99.90;;;;;;5075660;28;20695;-79
2021/08/29 05:54:36;;;;;;;8.63;6.50;;;16.40;99.90;;;;;;5075538;28;20273;-79
2021/08/29 05:57:01;;;;;;;11.27;5.57;;;16.40;99.90;;;;;;5075123;28;20686;-79
2021/08/29 05:59:27;;;;;;;11.43;6.27;;;16.50;99.90;;;;;;5057207;28;20180;-80
2021/08/29 06:01:53;;;;;;;10.90;6.27;;;16.50;99.90;;;;;;5075637;28;20214;-78
2021/08/29 06:04:18;;;;;;;12.47;6.37;;;16.50;99.90;;;;;;5056997;28;20664;-79
2021/08/29 06:06:44;;;;;;;13.63;6.83;;;16.60;99.90;;;;;;5074934;28;20173;-79
2021/08/29 06:09:09;;;;;;;11.30;5.73;;;16.40;99.90;;;;;;5074225;28;20168;-80
2021/08/29 06:11:35;;;;;;;11.87;6.30;;;16.40;99.90;;;;;;5075247;28;20176;-79
2021/08/29 06:14:01;;;;;;;8.90;5.90;;;16.30;99.90;;;;;;5056876;28;20258;-79
2021/08/29 06:16:27;;;;;;;9.63;6.20;;;16.30;99.90;;;;;;5074624;28;20164;-78
2021/08/29 06:18:53;;;;;;;12.10;6.73;;;16.30;99.90;;;;;;5074911;28;20169;-78
2021/08/29 06:21:19;;;;;;;10.60;6.57;;;16.20;99.90;;;;;;5076757;28;20175;-79
2021/08/29 06:23:45;;;;;;;9.77;5.73;;;16.30;99.90;;;;;;5057323;28;20180;-80
2021/08/29 06:26:10;;;;;;;12.30;5.60;;;16.30;99.90;;;;;;5074841;28;20230;-78
2021/08/29 06:28:36;;;;;;;11.23;5.40;;;16.30;99.90;;;;;;5074563;28;20172;-80
2021/08/29 06:31:02;;;;;;;9.67;5.30;;;16.40;99.90;;;;;;5074532;28;20168;-80
2021/08/29 06:33:27;;;;;;;10.83;5.90;;;16.30;99.70;;;;;;5074072;28;20175;-80
2021/08/29 06:35:55;;;;;;;10.47;5.57;;;16.40;98.70;;;;;;5074532;28;20183;-80
2021/08/29 06:38:21;;;;;;;10.40;5.67;;;16.40;97.40;;;;;;5074878;28;20172;-79
2021/08/29 06:40:47;;;;;;;10.87;6.17;;;16.50;96.80;;;;;;5041202;28;20175;-80
2021/08/29 06:43:14;;;;;;;9.53;5.40;;;16.60;96.20;;;;;;5058767;28;20176;-80
2021/08/29 06:45:40;;;;;;;12.80;6.40;;;16.60;95.00;;;;;;5074416;28;20208;-79
2021/08/29 06:48:06;;;;;;;11.80;5.67;;;16.50;94.80;;;;;;5056081;28;20206;-79
2021/08/29 06:50:32;;;;;;;12.73;6.00;;;16.50;94.50;;;;;;5074259;28;20184;-79
2021/08/29 06:52:57;;;;;;;10.47;6.20;;;16.50;94.40;;;;;;5073789;28;20168;-80
2021/08/29 06:55:23;;;;;;;10.27;5.70;;;16.50;94.20;;;;;;5073805;28;20215;-80
2021/08/29 06:57:49;;;;;;;9.83;5.33;;;16.50;94.60;;;;;;5074186;28;20169;-80
2021/08/29 07:00:14;;;;;;;9.43;5.43;;;16.50;94.40;;;;;;5073923;28;20632;-80
2021/08/29 07:02:40;;;;;;;11.57;5.87;;;16.50;93.90;;;;;;5074134;28;20305;-78
2021/08/29 07:05:06;;;;;;;10.80;5.97;;;16.60;93.30;;;;;;5055979;28;20172;-79
2021/08/29 07:07:33;;;;;;;7.93;4.80;;;16.60;92.90;;;;;;5074223;28;20225;-79
2021/08/29 07:09:58;;;;;;;10.97;6.03;;;16.70;91.60;;;;;;5074347;28;20203;-80
2021/08/29 07:12:24;;;;;;;8.83;6.30;;;16.70;91.80;;;;;;5073655;28;20644;-79
2021/08/29 07:14:50;;;;;;;9.60;5.53;;;16.80;91.40;;;;;;5073844;28;20246;-79
2021/08/29 07:17:18;;;;;;;8.13;5.43;;;16.80;90.70;;;;;;5073687;28;20625;-80
2021/08/29 07:19:44;;;;;;;9.77;5.40;;;16.80;90.60;;;;;;5074656;28;20239;-80
2021/08/29 07:22:10;;;;;;;12.83;5.93;;;16.70;91.40;;;;;;5056344;28;20549;-80
2021/08/29 07:24:36;;;;;;;12.40;5.80;;;16.70;92.60;;;;;;5073530;28;20180;-79
2021/08/29 07:27:01;;;;;;;9.80;5.43;;;16.80;92.70;;;;;;5074692;28;20174;-80
2021/08/29 07:29:28;;;;;;;11.00;5.40;;;16.80;93.50;;;;;;5056148;28;20600;-79
2021/08/29 07:31:54;;;;;;;14.33;6.67;;;16.70;94.10;;;;;;5074863;28;20192;-80
2021/08/29 07:34:19;;;;;;;11.27;5.37;;;16.80;94.30;;;;;;5075877;28;20231;-79
2021/08/29 07:36:46;;;;;;;8.33;5.20;;;16.90;94.10;;;;;;5079367;28;20600;-81
2021/08/29 07:39:12;;;;;;;8.67;5.40;;;17.00;93.50;;;;;;5066279;28;20172;-78
2021/08/29 07:41:37;;;;;;;9.93;5.97;;;17.10;93.10;;;;;;5088253;28;20186;-79
2021/08/29 07:44:03;;;;;;;13.80;5.40;;;17.00;93.70;;;;;;5080685;28;20212;-78
2021/08/29 07:46:33;;;;;;;12.23;5.43;;;17.00;93.50;;;;;;5059461;28;20191;-80
2021/08/29 07:49:06;;;;;;;9.07;5.83;;;17.00;94.10;;;;;;5076906;28;20586;-78
2021/08/29 07:51:32;;;;;;;9.70;5.87;;;17.10;94.50;;;;;;5075319;28;20249;-80
2021/08/29 07:53:58;;;;;;;11.83;5.07;;;17.20;94.30;;;;;;5074222;28;20208;-79
2021/08/29 07:56:25;;;;;;;10.17;5.27;;;17.10;93.70;;;;;;5056419;28;20617;-80
2021/08/29 07:58:51;;;;;;;11.57;5.40;;;17.10;93.70;;;;;;5055893;28;20214;-79
2021/08/29 08:01:17;;;;;;;10.70;5.27;;;17.00;94.40;;;;;;5073727;28;20214;-80
2021/08/29 08:03:42;;;;;;;8.77;5.10;;;17.10;94.40;;;;;;5072992;28;20247;-80
2021/08/29 08:06:08;;;;;;;10.00;5.03;;;17.10;93.80;;;;;;5080363;28;20602;-79
2021/08/29 08:08:34;;;;;;;7.73;4.60;;;17.20;93.50;;;;;;5061130;28;20639;-79
2021/08/29 08:10:59;;;;;;;10.37;4.60;;;17.30;92.30;;;;;;5085274;28;20202;-79
2021/08/29 08:13:26;;;;;;;9.67;3.97;;;17.10;92.90;;;;;;5055085;28;20183;-80
2021/08/29 08:15:52;;;;;;;12.83;5.03;;;17.20;93.30;;;;;;5073759;28;20198;-82
2021/08/29 08:18:25;;;;;;;12.63;4.93;;;17.20;93.30;;;;;;5073248;28;20251;-81
2021/08/29 08:20:51;;;;;;;10.63;4.63;;;17.20;93.00;;;;;;5054799;28;20181;-80
2021/08/29 08:23:20;;;;;;;12.07;5.27;;;17.20;93.20;;;;;;5055382;28;20636;-80
2021/08/29 08:25:46;;;;;;;9.67;4.53;;;17.20;93.30;;;;;;5073777;28;20247;-81
2021/08/29 08:28:11;;;;;;;8.73;4.73;;;17.30;92.60;;;;;;5072399;28;20196;-80
2021/08/29 08:30:37;;;;;;;10.23;4.20;;;17.20;92.80;;;;;;5055308;28;20592;-81
2021/08/29 08:33:03;;;;;;;7.77;3.90;;;17.20;93.10;;;;;;5055247;28;20528;-81
2021/08/29 08:35:28;;;;;;;9.63;4.57;;;17.30;92.70;;;;;;5064744;28;20212;-81
2021/08/29 08:37:55;;;;;;;10.50;4.37;;;17.30;91.70;;;;;;5078709;28;20183;-80
2021/08/29 08:40:22;;;;;;;9.30;4.13;;;17.30;92.40;;;;;;5067716;28;20199;-81
2021/08/29 08:42:48;;;;;;;8.43;4.10;;;17.30;92.40;;;;;;5080150;28;20263;-82
2021/08/29 08:45:15;;;;;;;8.73;3.50;;;17.40;90.90;;;;;;5074218;28;20364;-80
2021/08/29 08:47:50;;;;;;;7.10;3.87;;;17.40;90.60;;;;;;5073741;28;20169;-81
2021/08/29 08:50:16;;;;;;;10.17;4.10;;;17.40;90.20;;;;;;5073231;28;20172;-81
2021/08/29 08:52:42;;;;;;;8.07;3.60;;;17.50;88.90;;;;;;5054883;28;20199;-82
2021/08/29 08:55:09;;;;;;;9.13;4.27;;;17.50;85.00;;;;;;5072966;28;20656;-80
2021/08/29 08:57:39;;;;;;;8.20;4.00;;;17.50;84.20;;;;;;5073353;28;20172;-80
2021/08/29 09:00:06;;;;;;;9.37;4.10;;;17.60;80.50;;;;;;5081228;28;20157;-80
2021/08/29 09:02:33;;;;;;;8.87;3.77;;;17.60;78.10;;;;;;5079818;28;20160;-80
2021/08/29 09:04:58;;;;;;;8.73;3.70;;;17.70;74.70;;;;;;5092453;28;20165;-80
2021/08/29 09:07:26;;;;;;;8.93;4.33;;;17.70;71.20;;;;;;5059790;28;20270;-80
2021/08/29 09:09:53;;;;;;;12.27;3.90;;;17.70;67.60;;;;;;5078743;28;20179;-78
2021/08/29 09:12:22;;;;;;;9.57;3.80;;;17.70;63.90;;;;;;5066125;28;20680;-80
2021/08/29 09:14:51;;;;;;;13.13;4.83;;;17.80;59.70;;;;;;5067184;28;20731;-80
2021/08/29 09:17:34;;;;;;;9.47;3.83;;;17.80;55.30;;;;;;5077187;28;20581;-80
2021/08/29 09:20:20;;;;;;;10.53;4.00;;;17.80;58.10;;;;;;5085009;28;20173;-80
2021/08/29 09:22:48;;;;;;;11.87;4.13;;;17.90;54.50;;;;;;5081163;28;20180;-81
2021/08/29 09:25:15;;;;;;;9.00;4.27;;;18.10;54.10;;;;;;5076798;28;20164;-82
2021/08/29 09:27:50;;;;;;;7.20;3.60;;;18.20;44.80;;;;;;5057447;28;20183;-80
2021/08/29 09:30:17;;;;;;;10.33;3.87;;;18.20;35.20;;;;;;5076151;28;20168;-80
2021/08/29 09:33:01;;;;;;;9.87;3.67;;;18.10;28.30;;;;;;5076746;28;20194;-79
2021/08/29 09:35:34;;;;;;;9.77;4.10;;;18.20;24.60;;;;;;5075293;28;20664;-80
2021/08/29 09:38:00;;;;;;;11.97;4.37;;;18.40;23.30;;;;;;5075222;28;20186;-80
2021/08/29 09:40:37;;;;;;;9.30;3.63;;;18.20;18.50;;;;;;5075317;28;20177;-81
2021/08/29 09:43:05;;;;;;;10.47;4.57;;;18.10;25.70;;;;;;5075617;28;20160;-79
2021/08/29 09:45:33;;;;;;;10.97;4.20;;;18.10;23.90;;;;;;5056698;28;20169;-80
2021/08/29 09:48:02;;;;;;;8.77;4.37;;;18.10;23.50;;;;;;5075315;28;20179;-80
2021/08/29 09:50:29;;;;;;;8.97;4.53;;;18.10;22.60;;;;;;5075212;28;20176;-80
2021/08/29 09:53:20;;;;;;;8.93;4.50;;;18.00;21.80;;;;;;5075587;28;20165;-79
2021/08/29 09:55:47;;;;;;;9.83;4.50;;;18.00;22.80;;;;;;5062954;28;20534;-80
2021/08/29 09:58:32;;;;;;;7.20;4.10;;;18.00;24.10;;;;;;5074769;28;20171;-80
2021/08/29 10:01:12;;;;;;;10.13;4.50;;;18.00;29.00;;;;;;5057293;28;20307;-81
2021/08/29 10:03:46;;;;;;;9.07;4.27;;;18.00;37.00;;;;;;5075333;28;20168;-82
2021/08/29 10:06:27;;;;;;;8.83;3.87;;;18.00;37.20;;;;;;5075168;28;20173;-80
2021/08/29 10:08:58;;;;;;;10.53;4.67;;;18.00;33.60;;;;;;5075167;28;20173;-80
2021/08/29 10:11:26;;;;;;;9.53;4.50;;;18.00;34.60;;;;;;5075287;28;20219;-81
2021/08/29 10:13:53;;;;;;;6.53;3.93;;;18.10;34.20;;;;;;5075231;28;20212;-80
2021/08/29 10:16:22;;;;;;;8.43;3.70;;;18.10;29.90;;;;;;5076047;28;20247;-80
2021/08/29 10:18:50;;;;;;;12.60;3.90;;;18.10;29.30;;;;;;5058090;28;20198;-80
2021/08/29 10:21:18;;;;;;;6.10;3.43;;;18.10;28.90;;;;;;5056152;28;20275;-81
2021/08/29 10:23:47;;;;;;;9.13;4.07;;;18.10;31.90;;;;;;5074273;28;20658;-80
2021/08/29 10:26:14;;;;;;;9.77;3.47;;;18.20;30.30;;;;;;5074841;28;20227;-80
2021/08/29 10:28:52;;;;;;;10.70;3.50;;;18.30;28.00;;;;;;5075804;28;20172;-80
2021/08/29 10:31:22;;;;;;;8.37;3.43;;;18.10;23.60;;;;;;5057339;28;20268;-80
2021/08/29 10:33:49;;;;;;;9.00;3.67;;;18.00;32.60;;;;;;5056830;28;20569;-81
2021/08/29 10:36:20;;;;;;;9.37;3.30;;;18.00;30.70;;;;;;5056766;28;20227;-80
2021/08/29 10:38:47;;;;;;;9.23;3.37;;;18.00;28.50;;;;;;5075923;28;20168;-80
2021/08/29 10:41:19;;;;;;;9.97;3.40;;;18.00;32.80;;;;;;5075691;28;20565;-80
2021/08/29 10:43:45;;;;;;;8.37;3.23;;;18.00;27.30;;;;;;5056450;28;20724;-80
2021/08/29 10:46:11;;;;;;;9.67;3.73;;;18.00;29.90;;;;;;5078078;28;20192;-79
2021/08/29 10:48:40;;;;;;;9.20;3.50;;;18.00;33.20;;;;;;5073992;28;20173;-81
2021/08/29 10:51:08;;;;;;;6.83;3.40;;;18.00;28.80;;;;;;5073904;28;20196;-80
2021/08/29 10:53:37;;;;;;;9.20;3.73;;;18.00;23.10;;;;;;5073697;28;20649;-80
2021/08/29 10:56:33;;;;;;;9.10;3.30;;;18.10;27.70;;;;;;5057293;28;20209;-80
2021/08/29 10:59:26;;;;;;;7.83;2.77;;;18.10;23.40;;;;;;5043797;28;20212;-81
2021/08/29 11:02:09;;;;;;;7.43;3.13;;;18.00;20.60;;;;;;5052180;28;20180;-80
2021/08/29 11:04:34;;;;;;;8.83;3.40;;;18.00;18.60;;;;;;5057054;28;20202;-80
2021/08/29 11:07:06;;;;;;;8.20;2.90;;;18.10;17.20;;;;;;5074510;28;20168;-80
2021/08/29 11:09:34;;;;;;;9.67;4.07;;;18.10;12.80;;;;;;5074103;28;20164;-81
2021/08/29 11:12:13;;;;;;;8.43;3.07;;;18.10;15.40;;;;;;5056476;28;20169;-81
2021/08/29 11:14:47;;;;;;;9.93;2.90;;;18.00;14.00;;;;;;5073336;28;20310;-80
2021/08/29 11:17:33;;;;;;;9.17;3.27;;;18.00;15.10;;;;;;5054978;28;20244;-80
2021/08/29 11:20:02;;;;;;;7.30;2.83;;;18.10;14.70;;;;;;5056056;28;20172;-80
2021/08/29 11:22:28;;;;;;;13.77;3.37;;;18.00;14.60;;;;;;5074189;28;20203;-80
2021/08/29 11:25:10;;;;;;;7.40;3.47;;;18.20;16.50;;;;;;5075602;28;20165;-80
2021/08/29 11:27:36;;;;;;;6.33;3.00;;;18.20;9.40;;;;;;5055792;28;20169;-81
2021/08/29 11:30:05;;;;;;;7.30;3.20;;;18.30;7.40;;;;;;5073589;28;20160;-80
2021/08/29 11:32:44;;;;;;;7.27;3.10;;;18.40;1.00;;;;;;5073875;28;20690;-80
2021/08/29 11:35:16;;;;;;;9.93;3.63;;;18.40;1.00;;;;;;5056238;28;20618;-80
2021/08/29 11:38:04;;;;;;;7.30;3.30;;;18.40;1.00;;;;;;5055907;28;20164;-80
2021/08/29 11:40:53;;;;;;;9.27;3.37;;;18.40;1.00;;;;;;5055977;28;20168;-80
2021/08/29 11:43:19;;;;;;;8.33;3.60;;;18.40;1.00;;;;;;5056005;28;20187;-80
2021/08/29 11:45:46;;;;;;;8.63;3.13;;;18.50;1.00;;;;;;5072658;28;20156;-79
2021/08/29 11:48:32;;;;;;;8.93;3.03;;;18.30;1.00;;;;;;5073714;28;20175;-79
2021/08/29 11:50:59;;;;;;;6.40;2.43;;;18.20;1.00;;;;;;5073815;28;20309;-80
2021/08/29 11:53:25;;;;;;;7.57;2.90;;;18.20;1.00;;;;;;5075054;28;20494;-79
2021/08/29 11:56:09;;;;;;;8.53;2.70;;;18.30;1.00;;;;;;5074698;28;20181;-81
2021/08/29 11:58:35;;;;;;;10.10;3.10;;;18.40;1.00;;;;;;5056769;28;20640;-81
2021/08/29 12:01:02;;;;;;;7.60;2.77;;;18.30;1.00;;;;;;5055549;28;20176;-81
2021/08/29 12:03:33;;;;;;;5.97;2.90;;;18.20;1.00;;;;;;5075774;28;20159;-80
2021/08/29 12:06:05;;;;;;;7.80;3.37;;;18.20;1.00;;;;;;5075859;28;20168;-80
2021/08/29 12:08:38;;;;;;;8.10;2.97;;;18.20;1.00;;;;;;5092534;28;20168;-81
2021/08/29 12:11:04;;;;;;;9.83;3.70;;;18.20;1.00;;;;;;5096704;28;20176;-79
2021/08/29 12:13:30;;;;;;;7.13;3.17;;;18.20;1.00;;;;;;5086574;28;20176;-80
2021/08/29 12:16:01;;;;;;;9.10;3.13;;;18.20;1.00;;;;;;5083532;28;20305;-81
2021/08/29 12:18:28;;;;;;;10.00;3.00;;;18.20;1.20;;;;;;5080025;28;20170;-80
2021/08/29 12:20:55;;;;;;;7.73;2.70;;;18.10;5.90;;;;;;5055120;28;20176;-80
2021/08/29 12:23:24;;;;;;;8.97;3.10;;;18.10;5.40;;;;;;5055593;28;20229;-81
2021/08/29 12:26:00;;;;;;;8.10;3.00;;;18.10;8.20;;;;;;5074800;28;20180;-79
2021/08/29 12:28:30;;;;;;;10.53;3.50;;;18.10;10.30;;;;;;5056594;28;20170;-80
2021/08/29 12:31:03;;;;;;;6.90;3.23;;;18.00;17.90;;;;;;5073566;28;20164;-79
2021/08/29 12:33:29;;;;;;;8.73;3.50;;;17.90;22.50;;;;;;5074295;28;20242;-79
2021/08/29 12:35:56;;;;;;;6.67;2.70;;;17.80;39.20;;;;;;5093164;28;20214;-80
2021/08/29 12:38:28;;;;;;;9.57;3.37;;;17.60;54.00;;;;;;5097157;28;20164;-80
2021/08/29 12:40:56;;;;;;;8.30;3.27;;;17.60;59.00;;;;;;5085957;28;20173;-80
2021/08/29 12:43:25;;;;;;;7.17;2.90;;;17.40;53.30;;;;;;5079379;28;20188;-81
2021/08/29 12:45:57;;;;;;;6.70;3.03;;;17.50;50.90;;;;;;5082064;28;20153;-80
2021/08/29 12:48:25;;;;;;;6.00;2.90;;;17.30;51.90;;;;;;5100137;28;20165;-80